createdAt,value
2023-03-17T00:01:09.484Z,23.40
2023-03-17T00:03:23.672Z,23.40
2023-03-17T00:05:34.288Z,23.50
2023-03-17T00:07:41.780Z,23.50
2023-03-17T00:09:50.291Z,23.50
2023-03-17T00:11:57.270Z,23.60
2023-03-17T00:14:05.170Z,23.60
2023-03-17T00:16:19.912Z,23.70
2023-03-17T00:18:28.900Z,23.70
2023-03-17T00:20:36.952Z,23.80
2023-03-17T00:22:44.236Z,23.80
2023-03-17T00:24:51.932Z,23.90
2023-03-17T00:26:59.316Z,23.90
2023-03-17T00:29:06.957Z,24.00
2023-03-17T00:31:19.205Z,24.10
2023-03-17T00:33:30.037Z,24.10
2023-03-17T00:35:37.039Z,24.20
2023-03-17T00:37:44.948Z,24.20
2023-03-17T00:39:53.926Z,24.30
2023-03-17T00:42:01.054Z,24.40
2023-03-17T00:44:08.172Z,24.40
2023-03-17T00:46:18.531Z,24.50
2023-03-17T00:48:26.393Z,24.60
2023-03-17T00:50:36.999Z,24.60
2023-03-17T00:52:43.884Z,24.70
2023-03-17T00:54:52.280Z,24.70
2023-03-17T00:57:01.614Z,24.80
2023-03-17T00:59:14.683Z,24.80
2023-03-17T01:01:23.611Z,24.80
2023-03-17T01:03:32.118Z,24.90
2023-03-17T01:05:41.555Z,24.90
2023-03-17T01:07:54.880Z,25.00
2023-03-17T01:10:04.978Z,25.00
2023-03-17T01:12:15.694Z,25.10
2023-03-17T01:14:22.979Z,25.10
2023-03-17T01:16:30.367Z,25.10
2023-03-17T01:18:38.238Z,25.20
2023-03-17T01:20:48.771Z,25.30
2023-03-17T01:22:59.790Z,25.30
2023-03-17T01:25:06.824Z,25.40
2023-03-17T01:27:19.379Z,25.40
2023-03-17T01:29:26.617Z,25.40
2023-03-17T01:31:37.937Z,25.50
2023-03-17T01:33:45.992Z,25.60
2023-03-17T01:35:55.055Z,25.60
2023-03-17T01:38:02.047Z,25.70
2023-03-17T01:40:21.062Z,25.70
2023-03-17T01:42:35.361Z,25.80
2023-03-17T01:45:00.665Z,25.80
2023-03-17T01:47:09.227Z,25.90
2023-03-17T01:49:25.996Z,25.90
2023-03-17T01:51:38.802Z,26.00
2023-03-17T01:53:48.844Z,26.00
2023-03-17T01:56:02.434Z,26.10
2023-03-17T01:58:10.069Z,26.10
2023-03-17T02:00:20.717Z,26.20
2023-03-17T02:02:31.907Z,26.20
2023-03-17T02:04:41.546Z,26.30
2023-03-17T02:06:58.428Z,26.30
2023-03-17T02:09:07.429Z,26.40
2023-03-17T02:11:18.141Z,26.50
2023-03-17T02:13:27.474Z,26.50
2023-03-17T02:15:41.621Z,26.60
2023-03-17T02:17:50.751Z,26.60
2023-03-17T02:20:01.673Z,26.70
2023-03-17T02:22:11.266Z,26.80
2023-03-17T02:24:29.605Z,26.80
2023-03-17T02:26:39.800Z,26.90
2023-03-17T02:28:50.160Z,26.90
2023-03-17T02:30:58.456Z,27.00
2023-03-17T02:33:07.116Z,27.10
2023-03-17T02:35:15.745Z,27.10
2023-03-17T02:37:24.933Z,27.20
2023-03-17T02:39:32.518Z,27.20
2023-03-17T02:41:40.133Z,27.30
2023-03-17T02:51:13.503Z,27.50
2023-03-17T02:53:22.647Z,27.50
2023-03-17T02:55:32.896Z,27.50
2023-03-17T02:57:49.502Z,27.50
2023-03-17T02:59:57.238Z,27.50
2023-03-17T03:02:04.414Z,27.60
2023-03-17T03:04:13.198Z,27.60
2023-03-17T03:06:26.217Z,27.70
2023-03-17T03:08:38.829Z,27.70
2023-03-17T03:10:46.209Z,27.70
2023-03-17T03:15:16.901Z,27.90
2023-03-17T03:17:28.794Z,28.00
2023-03-17T03:19:42.789Z,28.00
2023-03-17T03:22:00.358Z,28.10
2023-03-17T03:24:14.199Z,28.20
2023-03-17T03:28:41.818Z,28.30
2023-03-17T03:30:50.676Z,28.40
2023-03-17T03:32:59.086Z,28.40
2023-03-17T03:35:10.282Z,28.60
2023-03-17T03:37:19.764Z,28.60
2023-03-17T03:39:29.919Z,28.80
2023-03-17T03:41:36.947Z,28.90
2023-03-17T03:43:45.150Z,28.90
2023-03-17T03:45:56.626Z,29.00
2023-03-17T03:48:13.843Z,29.10
2023-03-17T03:50:24.857Z,29.20
2023-03-17T03:52:41.224Z,29.30
2023-03-17T03:54:55.248Z,29.30
2023-03-17T03:57:14.409Z,29.30
2023-03-17T04:01:43.794Z,29.50
2023-03-17T04:03:54.921Z,29.60
2023-03-17T04:06:03.667Z,29.70
2023-03-17T04:10:37.081Z,29.80
2023-03-17T04:12:43.243Z,29.80
2023-03-17T04:14:57.020Z,29.90
2023-03-17T04:17:27.464Z,30.00
2023-03-17T04:19:36.786Z,30.10
2023-03-17T04:21:46.163Z,30.10
2023-03-17T04:23:58.777Z,30.20
2023-03-17T04:26:17.272Z,30.20
2023-03-17T04:28:35.664Z,30.30
2023-03-17T04:30:53.648Z,30.40
2023-03-17T04:33:01.030Z,30.50
2023-03-17T04:35:10.161Z,30.60
2023-03-17T04:37:23.850Z,30.70
2023-03-17T04:39:31.748Z,30.70
2023-03-17T04:41:40.944Z,30.70
2023-03-17T04:43:48.122Z,30.70
2023-03-17T04:45:55.920Z,30.80
2023-03-17T04:48:06.665Z,30.90
2023-03-17T04:50:19.950Z,30.90
2023-03-17T04:52:27.019Z,31.00
2023-03-17T04:54:44.955Z,31.00
2023-03-17T04:56:54.289Z,31.10
2023-03-17T04:59:06.390Z,31.20
2023-03-17T05:01:13.185Z,31.20
2023-03-17T05:03:27.181Z,31.30
2023-03-17T05:05:38.013Z,31.40
2023-03-17T05:07:49.662Z,31.40
2023-03-17T05:09:59.800Z,31.50
2023-03-17T05:12:11.045Z,31.60
2023-03-17T05:14:19.549Z,31.70
2023-03-17T05:16:28.909Z,31.70
2023-03-17T05:18:35.798Z,31.80
2023-03-17T05:20:46.103Z,31.90
2023-03-17T05:22:53.035Z,31.90
2023-03-17T05:25:02.620Z,32.00
2023-03-17T05:27:19.783Z,32.00
2023-03-17T05:29:30.602Z,32.00
2023-03-17T05:31:41.236Z,32.00
2023-03-17T05:34:07.236Z,32.10
2023-03-17T05:36:14.625Z,32.10
2023-03-17T05:40:43.119Z,32.30
2023-03-17T05:43:00.602Z,32.30
2023-03-17T05:45:11.045Z,32.30
2023-03-17T05:47:21.504Z,32.20
2023-03-17T05:49:31.756Z,32.20
2023-03-17T05:51:42.632Z,32.20
2023-03-17T05:53:59.850Z,32.20
2023-03-17T05:56:13.834Z,32.10
2023-03-17T06:00:53.902Z,32.40
2023-03-17T06:03:02.777Z,32.50
2023-03-17T06:05:17.848Z,32.60
2023-03-17T06:07:25.334Z,32.70
2023-03-17T06:11:58.330Z,32.70
2023-03-17T06:14:07.263Z,32.70
2023-03-17T06:16:20.509Z,32.60
2023-03-17T06:18:30.745Z,32.60
2023-03-17T06:20:39.404Z,32.70
2023-03-17T06:23:03.276Z,32.80
2023-03-17T06:25:25.143Z,32.90
2023-03-17T06:27:35.500Z,33.00
2023-03-17T06:29:47.022Z,33.10
2023-03-17T06:32:17.056Z,33.10
2023-03-17T06:36:52.627Z,33.20
2023-03-17T06:39:00.855Z,33.30
2023-03-17T06:41:09.137Z,33.30
2023-03-17T06:43:16.821Z,33.40
2023-03-17T06:45:32.094Z,33.50
2023-03-17T06:47:41.745Z,33.50
2023-03-17T06:49:49.224Z,33.50
2023-03-17T06:52:09.410Z,33.60
2023-03-17T06:54:28.316Z,33.50
2023-03-17T06:56:35.607Z,33.50
2023-03-17T06:58:46.366Z,33.50
2023-03-17T07:01:01.784Z,33.50
2023-03-17T07:03:21.108Z,33.60
2023-03-17T07:05:39.521Z,33.60
2023-03-17T07:07:51.488Z,33.60
2023-03-17T07:10:02.063Z,33.60
2023-03-17T07:12:09.654Z,33.60
2023-03-17T07:14:24.298Z,33.60
2023-03-17T07:16:39.195Z,33.50
2023-03-17T07:18:57.214Z,33.40
2023-03-17T07:21:10.480Z,33.40
2023-03-17T07:23:23.360Z,33.40
2023-03-17T07:25:30.682Z,33.40
2023-03-17T07:27:42.253Z,33.50
2023-03-17T07:29:57.948Z,33.50
2023-03-17T07:32:09.265Z,33.60
2023-03-17T07:36:51.486Z,33.70
2023-03-17T07:39:05.490Z,33.70
2023-03-17T07:41:13.177Z,33.70
2023-03-17T07:43:26.334Z,33.80
2023-03-17T07:45:45.776Z,33.80
2023-03-17T07:47:58.061Z,33.90
2023-03-17T07:50:05.601Z,33.90
2023-03-17T07:52:14.728Z,34.00
2023-03-17T07:54:22.786Z,34.00
2023-03-17T07:56:31.181Z,34.00
2023-03-17T07:58:42.311Z,34.00
2023-03-17T08:00:53.004Z,34.00
2023-03-17T08:03:09.781Z,34.00
2023-03-17T08:05:19.312Z,34.00
2023-03-17T08:07:27.666Z,34.00
2023-03-17T08:09:41.628Z,34.00
2023-03-17T08:11:53.921Z,34.00
2023-03-17T08:14:07.240Z,34.00
2023-03-17T08:16:19.024Z,34.00
2023-03-17T08:18:28.568Z,33.90
2023-03-17T08:20:36.322Z,33.90
2023-03-17T08:22:48.441Z,33.90
2023-03-17T08:29:46.625Z,33.90
2023-03-17T08:31:58.247Z,33.80
2023-03-17T08:34:08.302Z,33.90
2023-03-17T08:36:17.182Z,33.90
2023-03-17T08:38:27.357Z,33.90
2023-03-17T08:40:52.543Z,33.90
2023-03-17T08:43:04.727Z,33.80
2023-03-17T08:45:12.789Z,33.70
2023-03-17T08:47:21.047Z,33.70
2023-03-17T08:49:30.577Z,33.70
2023-03-17T08:51:50.353Z,33.60
2023-03-17T08:54:09.356Z,33.60
2023-03-17T08:56:22.548Z,33.60
2023-03-17T08:58:37.041Z,33.70
2023-03-17T09:00:45.456Z,33.70
2023-03-17T09:05:19.272Z,33.70
2023-03-17T09:07:29.453Z,33.70
2023-03-17T09:14:42.579Z,33.60
2023-03-17T09:17:05.867Z,33.50
2023-03-17T09:19:13.418Z,33.50
2023-03-17T09:23:50.411Z,33.30
2023-03-17T09:28:17.480Z,33.10
2023-03-17T09:30:24.580Z,33.10
2023-03-17T09:32:31.964Z,33.10
2023-03-17T09:34:39.543Z,33.10
2023-03-17T09:36:48.609Z,33.10
2023-03-17T09:38:55.537Z,33.10
2023-03-17T09:41:10.808Z,33.10
2023-03-17T09:43:33.909Z,33.00
2023-03-17T09:48:35.278Z,32.90
2023-03-17T09:50:51.005Z,32.80
2023-03-17T09:53:05.917Z,32.80
2023-03-17T09:55:30.089Z,32.80
2023-03-17T09:57:39.591Z,32.80
2023-03-17T09:59:49.540Z,32.70
2023-03-17T10:01:56.697Z,32.70
2023-03-17T10:04:13.474Z,32.70
2023-03-17T10:06:44.927Z,32.70
2023-03-17T10:09:14.587Z,32.70
2023-03-17T10:11:31.801Z,32.60
2023-03-17T10:13:54.037Z,32.60
2023-03-17T10:18:32.055Z,32.50
2023-03-17T10:20:41.952Z,32.50
2023-03-17T10:25:28.903Z,32.50
2023-03-17T10:27:41.585Z,32.40
2023-03-17T10:29:51.168Z,32.40
2023-03-17T10:34:26.317Z,32.30
2023-03-17T10:37:00.179Z,32.30
2023-03-17T10:39:20.531Z,32.30
2023-03-17T10:41:38.922Z,32.30
2023-03-17T10:43:51.922Z,32.20
2023-03-17T10:46:06.329Z,32.20
2023-03-17T10:48:14.235Z,32.20
2023-03-17T10:50:38.313Z,32.10
2023-03-17T10:52:47.223Z,32.10
2023-03-17T10:54:57.843Z,32.00
2023-03-17T10:57:15.158Z,32.00
2023-03-17T11:01:49.077Z,31.90
2023-03-17T11:04:05.510Z,31.90
2023-03-17T11:06:35.916Z,31.80
2023-03-17T11:08:51.649Z,31.70
2023-03-17T11:10:59.639Z,31.70
2023-03-17T11:13:10.106Z,31.60
2023-03-17T11:15:26.698Z,31.50
2023-03-17T11:17:55.599Z,31.50
2023-03-17T11:20:21.721Z,31.40
2023-03-17T11:22:37.011Z,31.30
2023-03-17T11:24:57.341Z,31.30
2023-03-17T11:27:06.532Z,31.20
2023-03-17T11:29:29.938Z,31.20
2023-03-17T11:31:43.514Z,31.10
2023-03-17T11:34:00.358Z,31.00
2023-03-17T11:41:59.749Z,30.90
2023-03-17T11:47:34.860Z,30.90
2023-03-17T11:50:01.974Z,30.80
2023-03-17T11:52:17.640Z,30.80
2023-03-17T11:54:43.348Z,30.70
2023-03-17T11:57:04.505Z,30.70
2023-03-17T11:59:43.021Z,30.60
2023-03-17T12:02:00.633Z,30.60
2023-03-17T12:04:21.340Z,30.50
2023-03-17T12:06:31.247Z,30.40
2023-03-17T12:08:46.639Z,30.30
2023-03-17T12:15:57.167Z,30.10
2023-03-17T12:18:13.398Z,30.10
2023-03-17T12:20:33.846Z,30.00
2023-03-17T12:25:20.676Z,29.90
2023-03-17T12:27:33.123Z,29.80
2023-03-17T12:34:59.658Z,29.40
2023-03-17T12:39:36.693Z,29.30
2023-03-17T12:42:24.211Z,29.20
2023-03-17T12:45:01.863Z,29.20
2023-03-17T12:50:10.746Z,29.00
2023-03-17T12:52:43.673Z,28.90
2023-03-17T12:57:27.241Z,28.80
2023-03-17T12:59:50.721Z,28.80
2023-03-17T13:02:02.615Z,28.80
2023-03-17T13:04:32.505Z,28.80
2023-03-17T13:06:49.267Z,28.70
2023-03-17T13:09:00.645Z,28.60
2023-03-17T13:11:40.027Z,28.60
2023-03-17T13:16:40.827Z,28.60
2023-03-17T13:18:55.435Z,28.60
2023-03-17T13:21:54.375Z,28.60
2023-03-17T13:27:05.732Z,28.50
2023-03-17T13:29:38.471Z,28.50
2023-03-17T13:36:49.457Z,28.40
2023-03-17T13:47:53.388Z,28.20
2023-03-17T13:50:07.781Z,28.30
2023-03-17T13:52:21.114Z,28.10
2023-03-17T13:56:58.616Z,28.00
2023-03-17T14:01:53.231Z,27.90
2023-03-17T14:04:04.762Z,27.90
2023-03-17T14:08:41.748Z,27.80
2023-03-17T14:16:08.041Z,27.60
2023-03-17T14:18:40.071Z,27.50
2023-03-17T14:21:12.508Z,27.50
2023-03-17T14:23:23.422Z,27.50
2023-03-17T14:28:11.165Z,27.50
2023-03-17T14:30:36.829Z,27.60
2023-03-17T14:32:55.088Z,27.40
2023-03-17T14:39:57.384Z,27.10
2023-03-17T14:44:47.017Z,27.10
2023-03-17T14:46:55.684Z,27.10
2023-03-17T14:49:07.007Z,27.10
2023-03-17T14:53:55.944Z,27.00
2023-03-17T15:01:21.737Z,26.90
2023-03-17T15:06:19.761Z,26.90
2023-03-17T15:08:54.968Z,26.90
2023-03-17T15:11:12.730Z,26.90
2023-03-17T15:13:30.413Z,26.90
2023-03-17T15:20:47.050Z,26.90
2023-03-17T15:25:29.342Z,26.90
2023-03-17T15:32:40.671Z,26.70
2023-03-17T15:44:28.784Z,26.60
2023-03-17T15:46:36.858Z,26.50
2023-03-17T15:48:45.762Z,26.50
2023-03-17T15:50:53.805Z,26.50
2023-03-17T15:53:01.241Z,26.50
2023-03-17T15:55:17.585Z,26.50
2023-03-17T15:57:24.518Z,26.40
2023-03-17T15:59:31.638Z,26.40
2023-03-17T16:01:38.804Z,26.40
2023-03-17T16:03:48.569Z,26.40
2023-03-17T16:05:55.550Z,26.40
2023-03-17T16:08:02.874Z,26.40
2023-03-17T16:10:19.882Z,26.30
2023-03-17T16:12:35.000Z,26.30
2023-03-17T16:17:20.200Z,26.20
2023-03-17T16:19:36.742Z,26.20
2023-03-17T16:21:44.490Z,26.20
2023-03-17T16:23:57.197Z,26.20
2023-03-17T16:26:16.236Z,26.20
2023-03-17T16:28:29.085Z,26.10
2023-03-17T16:33:14.153Z,26.10
2023-03-17T16:35:24.774Z,26.00
2023-03-17T16:37:31.798Z,26.00
2023-03-17T16:39:39.230Z,26.00
2023-03-17T16:41:46.156Z,26.00
2023-03-17T16:44:10.339Z,25.90
2023-03-17T16:46:18.763Z,25.80
2023-03-17T16:48:27.619Z,25.80
2023-03-17T16:52:58.838Z,25.80
2023-03-17T16:55:11.705Z,25.80
2023-03-17T16:57:28.754Z,25.70
2023-03-17T16:59:46.793Z,25.70
2023-03-17T17:01:55.903Z,25.70
2023-03-17T17:04:02.794Z,25.70
2023-03-17T17:06:13.559Z,25.70
2023-03-17T17:08:20.494Z,25.70
2023-03-17T17:10:30.318Z,25.70
2023-03-17T17:12:37.361Z,25.70
2023-03-17T17:14:44.694Z,25.70
2023-03-17T17:16:51.931Z,25.60
2023-03-17T17:18:59.522Z,25.60
2023-03-17T17:21:10.244Z,25.50
2023-03-17T17:23:35.043Z,25.50
2023-03-17T17:25:42.518Z,25.40
2023-03-17T17:30:14.913Z,25.40
2023-03-17T17:35:09.460Z,25.40
2023-03-17T17:37:30.362Z,25.40
2023-03-17T17:44:29.501Z,25.40
2023-03-17T17:48:59.517Z,25.40
2023-03-17T17:51:06.701Z,25.40
2023-03-17T17:53:14.860Z,25.40
2023-03-17T17:55:26.444Z,25.40
2023-03-17T17:57:53.898Z,25.40
2023-03-17T18:00:01.345Z,25.40
2023-03-17T18:02:16.159Z,25.40
2023-03-17T18:04:29.989Z,25.40
2023-03-17T18:06:59.946Z,25.40
2023-03-17T18:09:12.202Z,25.30
2023-03-17T18:11:23.685Z,25.30
2023-03-17T18:18:17.534Z,25.30
2023-03-17T18:22:47.359Z,25.30
2023-03-17T18:24:55.389Z,25.30
2023-03-17T18:31:58.726Z,25.20
2023-03-17T18:36:34.524Z,25.10
2023-03-17T18:38:55.458Z,25.10
2023-03-17T18:41:03.103Z,25.10
2023-03-17T18:43:13.158Z,25.10
2023-03-17T18:45:25.033Z,25.10
2023-03-17T18:47:45.481Z,25.00
2023-03-17T18:52:32.966Z,25.00
2023-03-17T18:54:53.205Z,25.00
2023-03-17T18:57:01.830Z,25.00
2023-03-17T19:03:57.622Z,25.00
2023-03-17T19:06:13.510Z,24.90
2023-03-17T19:08:20.798Z,24.90
2023-03-17T19:10:27.719Z,24.90
2023-03-17T19:12:34.949Z,24.90
2023-03-17T19:14:43.765Z,24.80
2023-03-17T19:16:51.063Z,24.80
2023-03-17T19:18:58.857Z,24.80
2023-03-17T19:21:06.382Z,24.80
2023-03-17T19:23:13.617Z,24.80
2023-03-17T19:25:20.953Z,24.80
2023-03-17T19:27:27.882Z,24.80
2023-03-17T19:29:38.592Z,24.80
2023-03-17T19:31:48.624Z,24.90
2023-03-17T19:33:56.545Z,24.90
2023-03-17T19:36:03.994Z,24.80
2023-03-17T19:38:11.380Z,24.80
2023-03-17T19:40:18.395Z,24.80
2023-03-17T19:42:25.481Z,24.80
2023-03-17T19:44:32.356Z,24.80
2023-03-17T19:46:40.816Z,24.80
2023-03-17T19:48:49.474Z,24.80
2023-03-17T19:50:56.659Z,24.80
2023-03-17T19:53:03.529Z,24.80
2023-03-17T19:55:11.734Z,24.70
2023-03-17T19:57:20.198Z,24.80
2023-03-17T19:59:27.699Z,24.70
2023-03-17T20:01:34.868Z,24.70
2023-03-17T20:03:43.648Z,24.70
2023-03-17T20:05:54.530Z,24.70
2023-03-17T20:08:01.757Z,24.60
2023-03-17T20:10:09.892Z,24.50
2023-03-17T20:12:17.133Z,24.40
2023-03-17T20:14:24.203Z,24.50
2023-03-17T20:16:34.560Z,24.50
2023-03-17T20:18:41.438Z,24.50
2023-03-17T20:20:52.165Z,24.40
2023-03-17T20:22:59.294Z,24.40
2023-03-17T20:25:06.577Z,24.40
2023-03-17T20:27:16.364Z,24.40
2023-03-17T20:29:29.015Z,24.30
2023-03-17T20:31:52.948Z,24.30
2023-03-17T20:34:00.492Z,24.30
2023-03-17T20:36:13.582Z,24.30
2023-03-17T20:38:29.128Z,24.30
2023-03-17T20:40:41.841Z,24.30
2023-03-17T20:43:08.530Z,24.30
2023-03-17T20:45:18.594Z,24.30
2023-03-17T20:47:26.846Z,24.30
2023-03-17T20:49:34.181Z,24.30
2023-03-17T20:51:43.409Z,24.30
2023-03-17T20:53:52.681Z,24.30
2023-03-17T20:56:00.130Z,24.30
2023-03-17T20:58:07.098Z,24.20
2023-03-17T21:00:19.773Z,24.20
2023-03-17T21:02:27.219Z,24.20
2023-03-17T21:04:34.583Z,24.20
2023-03-17T21:06:44.324Z,24.20
2023-03-17T21:08:51.925Z,24.10
2023-03-17T21:11:04.369Z,24.10
2023-03-17T21:13:17.694Z,24.00
2023-03-17T21:15:24.831Z,24.00
2023-03-17T21:17:36.666Z,24.00
2023-03-17T21:19:47.241Z,24.00
2023-03-17T21:21:57.075Z,24.00
2023-03-17T21:24:07.280Z,24.00
2023-03-17T21:26:15.395Z,24.00
2023-03-17T21:28:22.727Z,24.10
2023-03-17T21:30:30.334Z,24.00
2023-03-17T21:32:37.503Z,24.10
2023-03-17T21:34:45.484Z,24.00
2023-03-17T21:37:01.370Z,24.00
2023-03-17T21:39:12.660Z,24.00
2023-03-17T21:41:26.023Z,24.00
2023-03-17T21:43:33.417Z,24.00
2023-03-17T21:45:44.142Z,24.00
2023-03-17T21:50:14.231Z,24.00
2023-03-17T21:52:23.242Z,23.90
2023-03-17T21:54:35.643Z,23.80
2023-03-17T21:56:42.930Z,23.80
2023-03-17T21:58:50.667Z,23.80
2023-03-17T22:00:57.951Z,23.70
2023-03-17T22:03:05.378Z,23.70
2023-03-17T22:07:52.476Z,23.70
2023-03-17T22:10:02.627Z,23.70
2023-03-17T22:12:27.744Z,23.70
2023-03-17T22:14:36.700Z,23.80
2023-03-17T22:16:44.284Z,23.80
2023-03-17T22:23:34.106Z,23.80
2023-03-17T22:25:45.734Z,23.80
2023-03-17T22:30:20.119Z,23.80
2023-03-17T22:32:31.751Z,23.80
2023-03-17T22:34:38.931Z,23.80
2023-03-17T22:36:59.023Z,23.80
2023-03-17T22:39:21.154Z,23.80
2023-03-17T22:41:40.516Z,23.80
2023-03-17T22:43:48.721Z,23.70
2023-03-17T22:45:59.350Z,23.70
2023-03-17T22:55:23.834Z,23.60
2023-03-17T22:57:33.123Z,23.60
2023-03-17T22:59:53.188Z,23.60
2023-03-17T23:04:21.231Z,23.60
2023-03-17T23:06:36.035Z,23.60
2023-03-17T23:08:50.177Z,23.60
2023-03-17T23:11:02.791Z,23.70
2023-03-17T23:15:44.754Z,23.70
2023-03-17T23:17:56.791Z,23.70
2023-03-17T23:20:04.947Z,23.80
2023-03-17T23:22:17.869Z,23.80
2023-03-17T23:24:39.123Z,23.80
2023-03-17T23:29:15.406Z,24.00
2023-03-17T23:31:37.436Z,24.00
2023-03-17T23:33:56.902Z,24.00
2023-03-17T23:36:33.013Z,24.10
2023-03-17T23:43:36.634Z,24.20
2023-03-17T23:50:27.628Z,24.30
2023-03-17T23:52:34.598Z,24.30
2023-03-17T23:57:27.881Z,24.30
2023-03-17T23:59:36.290Z,24.30
